St. Charles Oktoberfest 2017

# of participants: 682# of finishers: 619last updated: 9/24/2017 3:57 pm
Result Questions?
Award Race Race Rank Bib First Name Last Name City ST Time Pace Gender Age Gender Rank Age Group Age Group Rank
5K 67 660 Kyle Lamm 27:55 9:00/mile M 28 39 20-29 11
5K 68 80 Jackson Collman 27:58 9:01/mile M 12 40 1-19 7
5K 69 114 Stephanie Dubbs 27:59 9:01/mile F 33 29 30-39 10
5K 70 301 Paige Luckenbach 27:59 9:01/mile F 15 30 1-19 5
1 Mile 31 607 Alli Ketcherside 28:01 28:01/mile F 17 21
1 Mile 32 606 Debbie Ketcherside 28:02 28:02/mile F 50 22
5K 71 355 Liz Morris 28:17 9:07/mile F 21 31 20-29 9
5K 72 294 Alex Long 28:19 9:08/mile M 25 41 20-29 12
5K 73 219 Benjamin Holtman 28:25 9:10/mile M 37 42 30-39 10
5K 74 290 Jamie Limbaugh 28:26 9:10/mile F 37 32 30-39 11
5K 75 135 Michael Faught 28:30 9:11/mile M 68 43 60-99 6
5K 76 9 Kelly Anderson 28:32 9:12/mile F 29 33 20-29 10
5K 77 124 Greg Edwards 28:39 9:14/mile M 42 44 40-49 6
5K 78 217 Cory Hoffman 28:42 9:15/mile M 30 45 30-39 11
5K 79 587 Brooke Smith 28:50 9:18/mile F 30 34 30-39 12
5K 80 57 Mark Brueckmann 28:54 9:19/mile M 39 46 30-39 12
5K 81 1 Justin Adams 29:00 9:21/mile M 20 47 20-29 13
5K Handcycle 4 399 Josie Portell 29:02 9:22/mile F 10 1
5K 82 102 Juanita Davis 29:03 9:22/mile F 50 35 50-59 4
5K 83 86 Jenny Cook 29:03 9:22/mile F 44 36 40-49 5
5K 84 657 Megan Badolato 29:06 9:23/mile F 31 37 30-39 13
5K 85 27 Kevin Berns 29:06 9:23/mile M 48 48 40-49 7
5K 86 326 Abby McEwen 29:12 9:25/mile F 33 38 30-39 14
5K 87 522 Tim Wahl 29:15 9:26/mile M 31 49 30-39 13
5K 88 160 William Gausman 29:19 9:27/mile M 39 50 30-39 14
1 Mile 33 249 Rayah Kingery 29:22 29:22/mile F 12 23
5K 89 28 Maggie Best 29:24 9:29/mile F 24 39 20-29 11
5K 90 477 Jerome Stockemer 29:26 9:29/mile M 50 51 50-59 4
5K 91 56 Joseph Brooks 29:26 9:29/mile M 31 52 30-39 15
5K 92 446 Thomas Schilly 29:32 9:31/mile M 43 53 40-49 8
5K Handcycle 5 207 Dominic Herrera 29:35 9:32/mile M 12 4
5K 93 291 Kenzie Limbaugh 29:36 9:33/mile F 4 40 1-19 6
5K 94 521 Fred Wahl 29:37 9:33/mile M 64 54 60-99 7
5K 95 264 Maddy Kuhn 29:43 9:35/mile F 11 41 1-19 7
5K 96 180 Adam Gronewold 29:55 9:39/mile M 29 55 20-29 14
5K 97 489 Matt Temple 29:57 9:39/mile M 38 56 30-39 16
5K 98 479 John Stroud 29:58 9:40/mile M 51 57 50-59 5
5K 99 35 Tim Bohn 30:04 9:42/mile M 45 58 40-49 9
5K 100 643 Andrea Jenkins 30:05 9:42/mile F 60 42 60-99 1
5K 101 549 Emily Wilson 30:05 9:42/mile F 25 43 20-29 12
5K 102 552 Sherry Wilson 30:05 9:42/mile F 50 44 50-59 5
5K 103 282 Huan Le 30:08 9:43/mile M 51 59 50-59 6
5K 104 71 Natalie Christian 30:13 9:45/mile F 8 45 1-19 8
5K 105 72 Riley Christian 30:15 9:45/mile F 10 46 1-19 9
5K 106 73 Ryan Christian 30:18 9:46/mile M 41 60 40-49 10
5K 107 344 Olivia Miller 30:32 9:51/mile F 21 47 20-29 13
5K 108 417 Samie Rodgers 30:34 9:51/mile F 27 48 20-29 14
5K 109 336 Gordon Middleton 30:36 9:52/mile M 52 61 50-59 7
5K 110 674 Killian Walsh 30:37 9:52/mile F 24 49 20-29 15
5K 111 352 Al Montano 30:41 9:53/mile M 68 62 60-99 8
5K 112 642 Kristy Sakurai 30:41 9:54/mile F 22 50 20-29 16
5K 113 202 Jennifer Henderson 30:42 9:54/mile F 35 51 30-39 15
5K 114 252 David Kite 30:44 9:54/mile M 34 63 30-39 17
5K 115 330 Sean McLean 30:46 9:55/mile M 29 64 20-29 15
5K 116 465 Laura Smith 30:48 9:56/mile F 33 52 30-39 16
5K 117 463 Cort Smith 30:48 9:56/mile M 38 65 30-39 18
5K 118 29 John Birkmann 30:50 9:56/mile M 35 66 30-39 19
5K 119 15 Chris Ball 30:52 9:57/mile M 44 67 40-49 11
5K 120 441 Tad Savage 30:53 9:58/mile M 50 68 50-59 8
5K 121 520 Carol Waeckerle 30:57 9:59/mile F 36 53 30-39 17
5K 122 618 Rusty Buehler 31:01 10:00/mile M 52 69 50-59 9
5K 123 619 Daneen Buehler 31:02 10:00/mile F 50 54 50-59 6
5K 124 16 Abby Bandelow 31:04 10:01/mile F 27 55 20-29 17
5K 125 127 Pam Emery 31:06 10:02/mile F 60 56 60-99 2
5K 126 232 Victoria Johnson 31:10 10:03/mile F 21 57 20-29 18
5K 127 599 Scott Lamar 31:11 10:03/mile M 43 70 40-49 12
5K 128 231 Robert Johnson 31:12 10:04/mile M 28 71 20-29 16
5K 129 475 Jamie Stewart 31:13 10:04/mile F 29 58 20-29 19
5K 130 183 Heather Gump 31:18 10:06/mile F 23 59 20-29 20
5K 131 319 Will Matthews 31:19 10:06/mile M 32 72 30-39 20
5K 132 300 Mandy Luckenbach 31:25 10:08/mile F 51 60 50-59 7
5K 133 173 Carmyn Grapperhaus 31:25 10:08/mile F 15 61 1-19 10
5K 134 26 Audrey Berns 31:26 10:08/mile F 16 62 1-19 11
5K 135 174 Ken Grapperhaus 31:26 10:08/mile M 46 73 40-49 13
5K 136 311 Rachael Mahaney 31:29 10:09/mile F 28 63 20-29 21
5K 137 340 Josh Miller 31:29 10:09/mile M 29 74 20-29 17
5K 138 260 Tony Kramer 31:31 10:10/mile M 71 75 60-99 9
5K 139 47 Keith Bowser 31:39 10:12/mile M 47 76 40-49 14
5K 140 586 Barry Miller 31:39 10:12/mile M 55 77 50-59 10
5K 141 203 Wendy Henderson 31:42 10:13/mile F 41 64 40-49 6
5K 142 20 Ken Becker 31:42 10:13/mile M 42 78 40-49 15
5K 143 466 Andrea Soroski 31:42 10:13/mile F 32 65 30-39 18
10K Handcycle 2 288 Christian Lewin 31:43 5:06/mile M 17 2
5K 144 2 Mitchell Adducci 31:48 10:15/mile M 26 79 20-29 18
5K 145 448 Johnathan Schneider 31:49 10:16/mile M 33 80 30-39 21
5K 146 376 Mike Overschmidt 31:53 10:17/mile M 54 81 50-59 11
5K 147 266 Mathias Labs 31:54 10:17/mile M 30 82 30-39 22
5K 148 100 Dan Dachroeden 31:58 10:18/mile M 29 83 20-29 19
5K 149 214 Amanda Hobbs 32:02 10:20/mile F 24 66 20-29 22
5K 150 147 Jessica Fox 32:08 10:22/mile F 26 67 20-29 23
5K 151 410 Dave Riazi 32:09 10:22/mile M 48 84 40-49 16
5K 152 131 Emilie Eschbacher 32:10 10:22/mile F 29 68 20-29 24
5K 153 250 Abbi Kirchner 32:12 10:23/mile F 32 69 30-39 19
5K 154 138 Shannon Fitzpatrick 32:18 10:25/mile F 24 70 20-29 25
5K 155 229 Stephen Jacoby 32:20 10:26/mile M 55 85 50-59 12
5K 156 108 Tony Dohr 32:26 10:27/mile M 28 86 20-29 20
5K 157 106 Doug Deweese 32:29 10:28/mile M 35 87 30-39 23
5K 158 450 Eric Schroeder 32:31 10:29/mile M 32 88 30-39 24
5K 159 99 Amanda Dachroeden 32:37 10:31/mile F 28 71 20-29 26
5K 160 316 Loran Marquez 32:37 10:31/mile F 45 72 40-49 7